Time;durP1;ratioP1;P1;durP2;ratioP2;P2;SDS_P1;SDS_P2;PMS_P1;PMS_P2;Temp;Humidity;BMP_temperature;BMP_pressure;BME280_temperature;BME280_humidity;BME280_pressure;Samples;Min_cycle;Max_cycle;Signal;HPM_P1;HPM_P2
2021/08/29 00:01:59;;;;;;;26.63;23.92;;;15.00;89.10;;;;;;5076798;28;20027;-74
2021/08/29 00:04:25;;;;;;;26.73;23.88;;;15.00;89.20;;;;;;5094064;28;20084;-74
2021/08/29 00:06:51;;;;;;;25.38;22.17;;;15.00;89.20;;;;;;5100743;28;20040;-75
2021/08/29 00:09:17;;;;;;;29.10;26.10;;;14.90;89.20;;;;;;5102499;28;20031;-75
2021/08/29 00:11:42;;;;;;;27.20;23.83;;;14.90;89.40;;;;;;5111817;28;20036;-75
2021/08/29 00:14:08;;;;;;;16.98;13.88;;;14.90;89.60;;;;;;5110735;28;20027;-76
2021/08/29 00:16:34;;;;;;;20.30;18.10;;;14.90;89.70;;;;;;5110222;28;20416;-75
2021/08/29 00:18:59;;;;;;;16.73;14.00;;;14.90;89.70;;;;;;5109262;28;20024;-74
2021/08/29 00:21:25;;;;;;;23.08;20.70;;;14.90;89.80;;;;;;5111037;28;20043;-76
2021/08/29 00:23:51;;;;;;;20.50;17.33;;;14.90;89.90;;;;;;5092920;28;20023;-76
2021/08/29 00:26:16;;;;;;;24.02;20.83;;;14.90;90.00;;;;;;5110630;28;20559;-76
2021/08/29 00:28:42;;;;;;;25.20;22.55;;;14.90;90.00;;;;;;5093466;28;20118;-75
2021/08/29 00:31:08;;;;;;;26.20;23.42;;;14.90;90.10;;;;;;5110183;28;20055;-75
2021/08/29 00:33:34;;;;;;;16.38;14.65;;;14.90;90.10;;;;;;5112599;28;20055;-75
2021/08/29 00:35:59;;;;;;;17.30;14.07;;;14.90;90.10;;;;;;5110139;28;20039;-78
2021/08/29 00:38:25;;;;;;;9.25;6.85;;;14.90;90.10;;;;;;5110981;28;20034;-77
2021/08/29 00:40:51;;;;;;;10.65;7.30;;;14.90;90.10;;;;;;5111868;28;20036;-75
2021/08/29 00:43:18;;;;;;;11.55;7.80;;;14.90;90.20;;;;;;5110333;28;20110;-75
2021/08/29 00:45:45;;;;;;;10.18;6.70;;;15.00;90.20;;;;;;5111564;28;20046;-75
2021/08/29 00:48:13;;;;;;;11.43;7.07;;;15.00;90.20;;;;;;5110814;28;20028;-74
2021/08/29 00:50:42;;;;;;;11.10;7.10;;;15.00;90.20;;;;;;5111666;28;20082;-74
2021/08/29 00:53:08;;;;;;;8.05;5.97;;;15.00;90.20;;;;;;5109760;28;20031;-74
2021/08/29 00:55:37;;;;;;;10.02;6.10;;;15.00;90.20;;;;;;5093388;28;20034;-74
2021/08/29 00:58:03;;;;;;;10.43;5.47;;;15.10;90.20;;;;;;5110817;28;20031;-77
2021/08/29 01:00:31;;;;;;;7.18;5.47;;;15.10;90.20;;;;;;5111368;28;20032;-74
2021/08/29 01:02:58;;;;;;;10.55;5.15;;;15.10;90.20;;;;;;5093782;28;20066;-74
2021/08/29 01:05:31;;;;;;;10.40;4.05;;;15.10;90.20;;;;;;5109040;28;20028;-73
2021/08/29 01:08:05;;;;;;;6.55;4.20;;;15.20;90.20;;;;;;5091021;28;20059;-75
2021/08/29 01:10:48;;;;;;;6.63;4.00;;;15.20;90.20;;;;;;5094679;28;20054;-74
2021/08/29 01:13:23;;;;;;;6.53;3.53;;;15.20;90.20;;;;;;5109823;28;20024;-74
2021/08/29 01:15:51;;;;;;;6.90;3.65;;;15.20;90.20;;;;;;5110946;28;20566;-75
2021/08/29 01:18:20;;;;;;;6.05;3.70;;;15.20;90.20;;;;;;5110379;28;20147;-74
2021/08/29 01:21:03;;;;;;;8.13;4.10;;;15.20;90.20;;;;;;5109716;28;20349;-74
2021/08/29 01:23:31;;;;;;;7.47;4.35;;;15.20;90.20;;;;;;5110255;28;20114;-74
2021/08/29 01:26:08;;;;;;;5.65;3.70;;;15.20;90.20;;;;;;5115223;28;20032;-75
2021/08/29 01:28:53;;;;;;;8.95;4.07;;;15.20;90.20;;;;;;5115003;28;20024;-74
2021/08/29 01:31:21;;;;;;;7.88;4.35;;;15.20;90.20;;;;;;5113428;28;20110;-73
2021/08/29 01:33:48;;;;;;;9.25;4.53;;;15.20;90.20;;;;;;5115259;28;20460;-74
2021/08/29 01:36:14;;;;;;;7.25;3.58;;;15.20;90.30;;;;;;5112679;28;20043;-75
2021/08/29 01:38:41;;;;;;;6.43;4.28;;;15.20;90.30;;;;;;5096706;28;20042;-74
2021/08/29 01:41:08;;;;;;;9.10;4.47;;;15.20;90.30;;;;;;5114624;28;20038;-78
2021/08/29 01:43:34;;;;;;;7.38;4.40;;;15.20;90.40;;;;;;5113750;28;20019;-74
2021/08/29 01:46:01;;;;;;;7.97;4.72;;;15.10;90.40;;;;;;5096821;28;20046;-74
2021/08/29 01:48:27;;;;;;;7.28;3.90;;;15.20;90.40;;;;;;5102289;28;20024;-75
2021/08/29 01:50:53;;;;;;;7.25;4.13;;;15.20;90.40;;;;;;5075595;28;20034;-74
2021/08/29 01:53:19;;;;;;;7.00;3.70;;;15.20;90.40;;;;;;5113118;28;20073;-75
2021/08/29 01:55:44;;;;;;;6.38;4.13;;;15.20;90.40;;;;;;5096849;28;20032;-75
2021/08/29 01:58:10;;;;;;;7.25;4.85;;;15.20;90.40;;;;;;5093611;28;20371;-80
2021/08/29 02:00:48;;;;;;;8.20;5.43;;;15.20;90.40;;;;;;5113749;28;20073;-75
2021/08/29 02:03:13;;;;;;;10.88;5.07;;;15.20;90.60;;;;;;5114517;28;20027;-76
2021/08/29 02:05:40;;;;;;;8.45;4.65;;;15.20;90.40;;;;;;5113265;28;20038;-74
2021/08/29 02:08:07;;;;;;;8.65;3.67;;;15.20;90.40;;;;;;5113724;28;20435;-75
2021/08/29 02:10:35;;;;;;;7.60;4.40;;;15.30;90.50;;;;;;5113032;28;20463;-75
2021/08/29 02:13:09;;;;;;;8.60;3.65;;;15.30;90.50;;;;;;5097178;28;20387;-74
2021/08/29 02:15:43;;;;;;;14.90;4.85;;;15.30;90.50;;;;;;5114491;28;20051;-75
2021/08/29 02:18:12;;;;;;;6.25;3.95;;;15.20;90.50;;;;;;5114650;28;20048;-78
2021/08/29 02:20:39;;;;;;;5.30;3.53;;;15.20;90.50;;;;;;5114542;28;20027;-74
2021/08/29 02:23:06;;;;;;;11.48;4.13;;;15.30;90.60;;;;;;5113731;28;20081;-73
2021/08/29 02:25:32;;;;;;;8.63;3.80;;;15.30;90.60;;;;;;5112187;28;20334;-74
2021/08/29 02:27:58;;;;;;;6.88;4.28;;;15.30;90.60;;;;;;5113594;28;20039;-75
2021/08/29 02:30:25;;;;;;;9.70;4.00;;;15.30;90.60;;;;;;5113615;28;20038;-74
2021/08/29 02:32:53;;;;;;;9.05;3.92;;;15.20;90.70;;;;;;5079241;28;20023;-74
2021/08/29 02:35:20;;;;;;;8.38;4.28;;;15.30;90.70;;;;;;5111884;28;20087;-74
2021/08/29 02:37:47;;;;;;;11.27;3.50;;;15.30;90.70;;;;;;5094966;28;20028;-73
2021/08/29 02:40:16;;;;;;;6.20;3.80;;;15.30;90.80;;;;;;5093031;28;20120;-81
2021/08/29 02:42:42;;;;;;;6.95;3.63;;;15.20;90.80;;;;;;5093568;28;20048;-73
2021/08/29 02:45:10;;;;;;;10.85;4.00;;;15.30;90.80;;;;;;5093318;28;20067;-75
2021/08/29 02:47:36;;;;;;;9.25;4.28;;;15.30;90.80;;;;;;5098418;28;20510;-75
2021/08/29 02:50:02;;;;;;;8.13;3.83;;;15.30;90.80;;;;;;5112513;28;20020;-75
2021/08/29 02:52:28;;;;;;;9.20;4.03;;;15.30;90.80;;;;;;5112908;28;20047;-74
2021/08/29 02:54:56;;;;;;;9.10;4.07;;;15.40;90.80;;;;;;5111795;28;20032;-74
2021/08/29 02:57:24;;;;;;;9.38;4.25;;;15.30;90.80;;;;;;5112106;28;20027;-74
2021/08/29 02:59:50;;;;;;;10.35;4.32;;;15.30;90.80;;;;;;5095440;28;20035;-74
2021/08/29 03:02:16;;;;;;;8.32;4.40;;;15.30;90.80;;;;;;5111971;28;20034;-78
2021/08/29 03:04:41;;;;;;;8.07;4.40;;;15.30;90.90;;;;;;5111598;28;20375;-76
2021/08/29 03:07:07;;;;;;;9.57;4.32;;;15.30;90.90;;;;;;5098458;28;20570;-74
2021/08/29 03:09:34;;;;;;;10.38;4.15;;;15.30;90.90;;;;;;5094080;28;20109;-74
2021/08/29 03:12:08;;;;;;;9.55;4.47;;;15.30;90.90;;;;;;5111829;28;20051;-74
2021/08/29 03:14:35;;;;;;;12.93;4.13;;;15.40;91.00;;;;;;5111410;28;20395;-74
2021/08/29 03:17:01;;;;;;;9.20;3.83;;;15.40;91.00;;;;;;5091097;28;20055;-74
2021/08/29 03:19:28;;;;;;;10.43;4.30;;;15.40;91.00;;;;;;5090951;28;20494;-75
2021/08/29 03:21:54;;;;;;;9.00;4.43;;;15.40;91.00;;;;;;5092418;28;20035;-75
2021/08/29 03:24:21;;;;;;;8.85;3.97;;;15.40;91.00;;;;;;5117135;27;20049;-79
2021/08/29 03:26:47;;;;;;;8.93;3.72;;;15.40;91.00;;;;;;5111477;28;20097;-75
2021/08/29 03:29:13;;;;;;;9.68;4.20;;;15.40;91.00;;;;;;5111979;28;20039;-74
2021/08/29 03:31:39;;;;;;;11.25;3.60;;;15.40;91.00;;;;;;5128591;27;20023;-75
2021/08/29 03:34:06;;;;;;;11.68;4.20;;;15.40;91.00;;;;;;5111844;28;20036;-75
2021/08/29 03:36:33;;;;;;;8.18;4.03;;;15.50;91.00;;;;;;5112558;28;20027;-75
2021/08/29 03:39:03;;;;;;;7.93;4.35;;;15.50;91.00;;;;;;5112889;28;20098;-75
2021/08/29 03:41:30;;;;;;;9.00;5.35;;;15.50;91.00;;;;;;5110923;28;20173;-76
2021/08/29 03:43:56;;;;;;;18.13;12.23;;;15.50;91.00;;;;;;5110354;28;20036;-75
2021/08/29 03:46:22;;;;;;;23.13;17.20;;;15.50;91.00;;;;;;5111854;28;20048;-80
2021/08/29 03:48:49;;;;;;;20.50;16.98;;;15.50;90.90;;;;;;5094098;28;20028;-75
2021/08/29 03:51:16;;;;;;;17.05;14.15;;;15.50;91.00;;;;;;5093356;28;20032;-75
2021/08/29 03:53:43;;;;;;;22.67;17.50;;;15.50;91.00;;;;;;5110289;28;20030;-74
2021/08/29 03:56:12;;;;;;;23.30;19.92;;;15.50;90.90;;;;;;5112164;28;20442;-74
2021/08/29 03:58:42;;;;;;;27.80;21.15;;;15.50;90.90;;;;;;5110920;28;20024;-75
2021/08/29 04:01:08;;;;;;;21.83;15.75;;;15.50;90.90;;;;;;5111135;28;20194;-74
2021/08/29 04:03:34;;;;;;;19.50;14.20;;;15.60;90.90;;;;;;5110339;28;20535;-75
2021/08/29 04:06:02;;;;;;;12.40;7.75;;;15.50;90.90;;;;;;5111759;28;20054;-73
2021/08/29 04:08:31;;;;;;;14.57;8.95;;;15.50;90.90;;;;;;5112302;27;20028;-78
2021/08/29 04:10:59;;;;;;;10.43;8.02;;;15.50;90.90;;;;;;5111042;28;20035;-74
2021/08/29 04:13:30;;;;;;;11.98;7.85;;;15.50;90.90;;;;;;5110966;28;20387;-75
2021/08/29 04:15:56;;;;;;;12.20;7.85;;;15.50;90.90;;;;;;5110967;28;20066;-74
2021/08/29 04:18:22;;;;;;;11.68;7.55;;;15.50;90.90;;;;;;5112508;28;20031;-75
2021/08/29 04:20:49;;;;;;;11.10;5.55;;;15.50;90.90;;;;;;5110197;28;20032;-75
2021/08/29 04:23:15;;;;;;;11.70;4.85;;;15.50;90.90;;;;;;5093736;28;20024;-75
2021/08/29 04:25:40;;;;;;;9.30;5.20;;;15.50;90.90;;;;;;5111401;28;20027;-73
2021/08/29 04:28:06;;;;;;;11.70;5.18;;;15.50;90.90;;;;;;5093456;28;20047;-74
2021/08/29 04:30:32;;;;;;;10.20;5.60;;;15.50;90.90;;;;;;5111168;28;20107;-78
2021/08/29 04:32:59;;;;;;;9.45;4.63;;;15.50;90.90;;;;;;5110753;28;20024;-73
2021/08/29 04:35:24;;;;;;;9.30;5.03;;;15.50;90.90;;;;;;5111981;28;20077;-74
2021/08/29 04:37:51;;;;;;;11.70;6.93;;;15.50;90.90;;;;;;5093458;28;20032;-74
2021/08/29 04:40:17;;;;;;;12.98;9.20;;;15.50;90.90;;;;;;5112330;28;20100;-72
2021/08/29 04:42:42;;;;;;;16.13;10.32;;;15.50;90.90;;;;;;5110279;28;20028;-74
2021/08/29 04:45:09;;;;;;;14.18;10.13;;;15.50;90.90;;;;;;5111210;28;20032;-75
2021/08/29 04:47:35;;;;;;;14.20;7.90;;;15.60;90.90;;;;;;5109766;28;20067;-80
2021/08/29 04:50:00;;;;;;;10.65;7.70;;;15.60;90.90;;;;;;5110138;28;20417;-76
2021/08/29 04:52:26;;;;;;;15.15;7.57;;;15.50;90.80;;;;;;5076894;28;20127;-75
2021/08/29 04:54:52;;;;;;;12.73;9.07;;;15.50;90.80;;;;;;5111901;28;20047;-74
2021/08/29 04:57:17;;;;;;;15.95;12.05;;;15.50;90.80;;;;;;5111900;28;20036;-74
2021/08/29 04:59:43;;;;;;;27.27;21.70;;;15.60;90.80;;;;;;5114742;28;20080;-75
2021/08/29 05:02:08;;;;;;;31.65;27.58;;;15.60;90.80;;;;;;5098032;28;20032;-74
2021/08/29 05:04:34;;;;;;;33.13;29.63;;;15.60;90.80;;;;;;5113883;28;20515;-76
2021/08/29 05:07:01;;;;;;;42.92;38.55;;;15.60;90.80;;;;;;5114106;28;20089;-74
2021/08/29 05:09:26;;;;;;;38.53;34.53;;;15.70;90.80;;;;;;5114531;28;20038;-75
2021/08/29 05:11:52;;;;;;;45.80;41.10;;;15.70;90.80;;;;;;5096657;28;20027;-76
2021/08/29 05:14:18;;;;;;;30.98;26.02;;;15.70;90.80;;;;;;5113953;28;20067;-74
2021/08/29 05:16:43;;;;;;;22.38;18.10;;;15.70;90.80;;;;;;5113936;28;20063;-74
2021/08/29 05:19:09;;;;;;;19.50;13.20;;;15.60;90.80;;;;;;5097094;28;20085;-74
2021/08/29 05:21:34;;;;;;;22.30;17.33;;;15.70;90.80;;;;;;5097347;28;20118;-74
2021/08/29 05:24:00;;;;;;;16.25;10.90;;;15.70;90.80;;;;;;5113377;28;20350;-75
2021/08/29 05:26:26;;;;;;;25.58;18.05;;;15.70;90.80;;;;;;5115289;28;20221;-74
2021/08/29 05:28:51;;;;;;;17.83;14.05;;;15.70;90.80;;;;;;5113588;28;20063;-74
2021/08/29 05:31:17;;;;;;;14.13;9.85;;;15.70;90.80;;;;;;5115459;28;20448;-74
2021/08/29 05:33:42;;;;;;;20.98;14.20;;;15.70;90.80;;;;;;5113493;28;20486;-80
2021/08/29 05:36:08;;;;;;;19.27;14.32;;;15.70;90.70;;;;;;5096779;28;20042;-74
2021/08/29 05:38:34;;;;;;;40.55;34.88;;;15.70;90.80;;;;;;5114643;28;20480;-74
2021/08/29 05:40:59;;;;;;;32.90;29.10;;;15.70;90.80;;;;;;5114696;28;20659;-74
2021/08/29 05:43:25;;;;;;;43.25;38.58;;;15.70;90.80;;;;;;5114008;28;20045;-75
2021/08/29 05:45:50;;;;;;;44.90;40.38;;;15.70;90.80;;;;;;5113016;28;20403;-74
2021/08/29 05:48:16;;;;;;;51.22;45.67;;;15.70;90.70;;;;;;5113843;28;20047;-75
2021/08/29 05:50:42;;;;;;;70.38;63.17;;;15.80;90.70;;;;;;5113700;28;20034;-79
2021/08/29 05:53:07;;;;;;;73.47;65.95;;;15.80;90.70;;;;;;5113976;28;20084;-74
2021/08/29 05:55:33;;;;;;;60.78;54.65;;;15.80;90.70;;;;;;5113773;28;20035;-74
2021/08/29 05:57:59;;;;;;;55.72;50.00;;;15.80;90.70;;;;;;5113098;28;20092;-75
2021/08/29 06:00:24;;;;;;;50.58;45.50;;;15.80;90.70;;;;;;5113556;28;20036;-74
2021/08/29 06:02:50;;;;;;;72.53;65.65;;;15.90;90.60;;;;;;5079465;28;20038;-75
2021/08/29 06:05:15;;;;;;;71.40;64.30;;;15.90;90.60;;;;;;5096238;28;20051;-74
2021/08/29 06:07:41;;;;;;;81.20;73.13;;;15.90;90.60;;;;;;5096159;28;20472;-73
2021/08/29 06:10:07;;;;;;;89.93;81.10;;;15.90;90.60;;;;;;5113535;28;20058;-74
2021/08/29 06:12:33;;;;;;;55.53;49.83;;;15.90;90.50;;;;;;5113845;28;20028;-73
2021/08/29 06:14:58;;;;;;;43.95;39.65;;;16.00;90.50;;;;;;5095300;28;20132;-74
2021/08/29 06:17:24;;;;;;;42.42;37.97;;;16.00;90.40;;;;;;5112629;28;20221;-73
2021/08/29 06:19:50;;;;;;;37.25;33.30;;;16.10;90.40;;;;;;5078770;28;20036;-79
2021/08/29 06:22:15;;;;;;;26.40;23.60;;;16.10;90.30;;;;;;5095934;28;20032;-75
2021/08/29 06:24:41;;;;;;;31.48;25.70;;;16.20;90.30;;;;;;5112279;28;20162;-75
2021/08/29 06:27:07;;;;;;;27.73;24.77;;;16.30;90.20;;;;;;5078012;28;20122;-74
2021/08/29 06:29:32;;;;;;;17.90;16.00;;;16.40;90.10;;;;;;5112573;28;20345;-75
2021/08/29 06:31:58;;;;;;;12.90;7.15;;;16.40;90.00;;;;;;5100736;28;20388;-74
2021/08/29 06:34:23;;;;;;;24.77;20.77;;;16.50;89.70;;;;;;5095327;28;20023;-73
2021/08/29 06:36:49;;;;;;;24.80;19.65;;;16.60;89.50;;;;;;5111815;28;20032;-78
2021/08/29 06:39:15;;;;;;;40.15;36.15;;;16.70;89.40;;;;;;5112337;28;20035;-76
2021/08/29 06:41:40;;;;;;;44.13;39.70;;;16.70;89.20;;;;;;5107718;28;20728;-75
2021/08/29 06:44:06;;;;;;;41.80;37.60;;;16.80;88.90;;;;;;5082025;28;20042;-75
2021/08/29 06:46:32;;;;;;;43.97;39.58;;;16.80;88.80;;;;;;5104832;28;20048;-75
2021/08/29 06:48:58;;;;;;;47.30;42.67;;;16.90;88.50;;;;;;5079968;28;20028;-75
2021/08/29 06:51:24;;;;;;;40.33;36.45;;;16.90;88.50;;;;;;5102919;28;20073;-75
2021/08/29 06:53:50;;;;;;;24.92;22.23;;;16.90;88.30;;;;;;5113739;28;20368;-74
2021/08/29 06:56:16;;;;;;;29.80;26.45;;;16.90;88.20;;;;;;5112181;28;20088;-75
2021/08/29 06:58:41;;;;;;;40.53;36.42;;;17.00;88.00;;;;;;5078509;28;20468;-74
2021/08/29 07:01:07;;;;;;;32.25;28.75;;;17.10;87.80;;;;;;5111539;28;20036;-76
2021/08/29 07:03:32;;;;;;;38.17;34.22;;;17.20;87.50;;;;;;5112443;28;20028;-74
2021/08/29 07:05:58;;;;;;;43.95;39.63;;;17.30;87.30;;;;;;5111170;28;20035;-75
2021/08/29 07:08:24;;;;;;;45.03;40.58;;;17.40;86.90;;;;;;5077738;28;20027;-74
2021/08/29 07:10:49;;;;;;;43.55;39.08;;;17.50;86.50;;;;;;5111439;28;20487;-77
2021/08/29 07:13:15;;;;;;;24.63;22.20;;;17.60;86.60;;;;;;5094964;28;20039;-76
2021/08/29 07:15:41;;;;;;;23.50;21.05;;;17.60;86.00;;;;;;5113038;28;20042;-75
2021/08/29 07:18:06;;;;;;;26.00;22.55;;;17.60;85.90;;;;;;5112815;28;20027;-73
2021/08/29 07:20:32;;;;;;;31.55;28.45;;;17.50;85.80;;;;;;5112268;28;20039;-75
2021/08/29 07:22:57;;;;;;;35.05;31.38;;;17.50;85.80;;;;;;5094115;28;20035;-80
2021/08/29 07:25:23;;;;;;;28.88;25.88;;;17.50;86.00;;;;;;5095508;28;20034;-72
2021/08/29 07:27:49;;;;;;;22.02;15.07;;;17.40;86.00;;;;;;5078783;28;20471;-73
2021/08/29 07:30:15;;;;;;;19.05;17.02;;;17.40;86.10;;;;;;5110052;28;20470;-74
2021/08/29 07:32:40;;;;;;;38.00;34.03;;;17.30;86.40;;;;;;5090812;28;20032;-74
2021/08/29 07:35:06;;;;;;;44.83;40.33;;;17.30;86.60;;;;;;5088796;28;20039;-74
2021/08/29 07:37:32;;;;;;;48.05;43.13;;;17.30;86.70;;;;;;5102947;28;20036;-79
2021/08/29 07:39:58;;;;;;;32.58;28.23;;;17.30;86.70;;;;;;5108506;28;20467;-81
2021/08/29 07:42:30;;;;;;;41.13;36.95;;;17.30;86.90;;;;;;5087214;27;1287336;-75
2021/08/29 07:44:55;;;;;;;53.13;47.95;;;17.40;86.90;;;;;;5107793;28;20103;-74
2021/08/29 07:47:21;;;;;;;57.40;51.72;;;17.40;86.80;;;;;;5099986;28;20025;-73
2021/08/29 07:49:47;;;;;;;77.22;69.78;;;17.40;86.70;;;;;;5088416;28;20035;-75
2021/08/29 07:52:12;;;;;;;53.50;48.13;;;17.50;86.70;;;;;;5091511;28;20043;-74
2021/08/29 07:54:38;;;;;;;46.25;41.67;;;17.50;86.70;;;;;;5090712;28;20021;-74
2021/08/29 07:57:05;;;;;;;31.10;27.15;;;17.50;86.70;;;;;;5105919;28;20028;-76
2021/08/29 07:59:31;;;;;;;42.75;38.53;;;17.50;86.60;;;;;;5089175;28;20189;-75
2021/08/29 08:01:56;;;;;;;30.73;27.38;;;17.50;86.40;;;;;;5093499;28;20048;-75
2021/08/29 08:04:22;;;;;;;22.80;17.73;;;17.60;86.40;;;;;;5107200;28;20641;-76
2021/08/29 08:06:48;;;;;;;36.17;31.35;;;17.60;86.40;;;;;;5091367;28;20481;-74
2021/08/29 08:09:13;;;;;;;39.63;35.47;;;17.60;86.30;;;;;;5108580;28;20221;-76
2021/08/29 08:11:39;;;;;;;36.72;31.75;;;17.60;86.30;;;;;;5109395;28;20036;-75
2021/08/29 08:14:06;;;;;;;39.35;35.65;;;17.70;86.40;;;;;;5107653;28;20040;-80
2021/08/29 08:16:32;;;;;;;51.53;46.50;;;17.70;86.30;;;;;;5088033;28;20028;-75
2021/08/29 08:18:57;;;;;;;41.75;37.17;;;17.80;86.20;;;;;;5109042;28;20020;-75
2021/08/29 08:21:23;;;;;;;27.13;23.60;;;17.80;85.80;;;;;;5090376;28;20031;-76
2021/08/29 08:23:49;;;;;;;34.05;30.55;;;17.80;85.60;;;;;;5108844;28;20557;-75
2021/08/29 08:26:15;;;;;;;30.10;26.92;;;17.90;85.50;;;;;;5107965;28;20051;-74
2021/08/29 08:28:41;;;;;;;34.17;30.58;;;17.90;85.30;;;;;;5107075;28;20027;-74
2021/08/29 08:31:06;;;;;;;42.05;37.78;;;18.00;85.20;;;;;;5106667;28;20035;-78
2021/08/29 08:33:33;;;;;;;38.03;34.15;;;18.10;85.00;;;;;;5106702;28;20085;-76
2021/08/29 08:35:59;;;;;;;34.17;26.17;;;18.10;84.90;;;;;;5088496;28;20051;-76
2021/08/29 08:38:24;;;;;;;30.15;21.17;;;18.10;84.80;;;;;;5106723;28;20475;-74
2021/08/29 08:40:50;;;;;;;29.35;21.55;;;18.00;85.00;;;;;;5106810;28;20496;-75
2021/08/29 08:43:16;;;;;;;32.60;25.65;;;18.00;84.90;;;;;;5105266;28;20440;-76
2021/08/29 08:45:45;;;;;;;28.20;23.23;;;17.90;84.90;;;;;;5108147;28;20023;-75
2021/08/29 08:48:12;;;;;;;21.17;12.75;;;17.90;85.10;;;;;;5108685;28;20024;-82
2021/08/29 08:50:42;;;;;;;11.27;4.93;;;17.90;85.10;;;;;;5083401;28;20484;-75
2021/08/29 08:53:08;;;;;;;14.15;10.98;;;17.90;85.00;;;;;;5100996;28;20028;-74
2021/08/29 08:55:36;;;;;;;25.38;22.08;;;17.90;85.10;;;;;;5098374;28;20041;-75
2021/08/29 08:58:03;;;;;;;23.65;14.50;;;17.80;85.30;;;;;;5072037;28;20083;-74
2021/08/29 09:00:29;;;;;;;29.08;22.55;;;17.70;85.70;;;;;;5077293;28;20500;-74
2021/08/29 09:02:55;;;;;;;14.73;10.77;;;17.70;86.40;;;;;;5073397;28;20029;-74
2021/08/29 09:05:22;;;;;;;13.95;8.98;;;17.60;86.90;;;;;;5094243;28;20024;-75
2021/08/29 09:07:48;;;;;;;17.67;12.43;;;17.60;87.20;;;;;;5094245;28;20504;-74
2021/08/29 09:10:13;;;;;;;26.42;21.38;;;17.60;87.60;;;;;;5076239;28;20116;-79
2021/08/29 09:13:03;;;;;;;41.15;37.05;;;17.50;87.90;;;;;;5074460;28;20021;-75
2021/08/29 09:15:30;;;;;;;21.20;13.95;;;17.50;88.50;;;;;;5095281;28;20016;-76
2021/08/29 09:17:57;;;;;;;18.65;10.65;;;17.40;88.80;;;;;;5094305;28;20050;-76
2021/08/29 09:20:38;;;;;;;14.00;10.30;;;17.30;89.20;;;;;;5094490;28;20111;-75
2021/08/29 09:23:07;;;;;;;24.45;21.50;;;17.30;89.50;;;;;;5093372;28;20435;-76
2021/08/29 09:25:40;;;;;;;28.35;25.50;;;17.30;89.80;;;;;;5093459;28;20357;-76
2021/08/29 09:28:12;;;;;;;29.63;26.42;;;17.30;89.90;;;;;;5074356;28;20112;-76
2021/08/29 09:30:46;;;;;;;34.15;30.75;;;17.40;90.00;;;;;;5092536;28;20032;-76
2021/08/29 09:33:13;;;;;;;22.50;18.30;;;17.40;90.00;;;;;;5093323;28;20008;-77
2021/08/29 09:35:40;;;;;;;15.00;12.45;;;17.40;89.70;;;;;;5094989;28;20026;-75
2021/08/29 09:38:11;;;;;;;9.40;4.28;;;17.50;89.70;;;;;;5094909;28;20040;-78
2021/08/29 09:40:39;;;;;;;11.82;4.25;;;17.50;89.60;;;;;;5092795;28;20024;-78
2021/08/29 09:43:07;;;;;;;12.27;6.50;;;17.40;89.60;;;;;;5093043;28;20035;-78
2021/08/29 09:45:40;;;;;;;8.32;3.50;;;17.50;89.70;;;;;;5093436;28;20047;-77
2021/08/29 09:48:07;;;;;;;;;;;17.50;89.60;;;;;;5094613;28;20058;-78
2021/08/29 09:50:35;;;;;;;12.02;6.80;;;17.50;89.60;;;;;;5094036;28;19957;-78
2021/08/29 09:53:06;;;;;;;10.40;7.35;;;17.40;89.80;;;;;;5094118;28;20044;-77
2021/08/29 09:55:37;;;;;;;12.52;7.18;;;17.40;89.90;;;;;;5094138;28;20016;-77
2021/08/29 09:58:21;;;;;;;13.48;10.18;;;17.40;90.00;;;;;;5096097;28;20028;-76
2021/08/29 10:01:11;;;;;;;16.15;14.43;;;17.40;90.10;;;;;;5093309;28;20059;-79
2021/08/29 10:03:40;;;;;;;32.45;29.30;;;17.30;90.10;;;;;;5093938;28;20029;-78
2021/08/29 10:06:27;;;;;;;34.03;30.67;;;17.20;90.20;;;;;;5095132;28;20021;-78
2021/08/29 10:08:54;;;;;;;19.48;17.65;;;17.20;90.30;;;;;;5075335;28;20035;-77
2021/08/29 10:11:22;;;;;;;14.43;9.98;;;17.20;90.30;;;;;;5084737;28;20089;-77
2021/08/29 10:13:51;;;;;;;10.15;6.43;;;17.10;90.30;;;;;;5068649;28;20028;-77
2021/08/29 10:16:22;;;;;;;23.45;20.92;;;17.10;90.40;;;;;;5093490;28;20048;-77
2021/08/29 10:18:54;;;;;;;35.30;32.10;;;17.10;90.50;;;;;;5094390;28;20024;-78
2021/08/29 10:21:27;;;;;;;50.20;45.38;;;17.20;90.60;;;;;;5094540;28;20082;-77
2021/08/29 10:23:55;;;;;;;33.67;30.58;;;17.20;90.60;;;;;;5093538;28;20035;-76
2021/08/29 10:26:22;;;;;;;36.97;33.55;;;17.10;90.60;;;;;;5093897;28;20028;-77
2021/08/29 10:29:07;;;;;;;33.88;30.75;;;17.20;90.70;;;;;;5077155;28;20040;-77
2021/08/29 10:32:13;;;;;;;22.17;19.80;;;17.20;90.80;;;;;;5091563;28;20028;-79
2021/08/29 10:34:39;;;;;;;17.58;16.00;;;17.30;90.70;;;;;;5091379;28;20071;-77
2021/08/29 10:37:05;;;;;;;31.98;28.85;;;17.30;90.70;;;;;;5074149;28;20040;-77
2021/08/29 10:39:34;;;;;;;6.65;3.85;;;17.20;90.80;;;;;;5074072;28;20056;-79
2021/08/29 10:42:00;;;;;;;7.40;2.70;;;17.20;90.60;;;;;;5084216;28;20134;-77
2021/08/29 10:44:26;;;;;;;5.40;2.25;;;17.20;90.50;;;;;;5100811;28;20581;-81
2021/08/29 10:46:55;;;;;;;4.93;1.95;;;17.20;90.30;;;;;;5095312;28;20119;-76
2021/08/29 10:49:22;;;;;;;5.38;2.13;;;17.10;90.30;;;;;;5094951;28;20032;-78
2021/08/29 10:51:51;;;;;;;5.47;2.45;;;17.10;90.30;;;;;;5058159;28;20032;-77
2021/08/29 10:54:17;;;;;;;6.38;3.58;;;17.00;90.30;;;;;;5080736;28;20035;-77
2021/08/29 10:56:43;;;;;;;9.15;8.02;;;17.00;90.40;;;;;;5093346;28;20044;-75
2021/08/29 10:59:11;;;;;;;21.73;19.60;;;17.00;90.50;;;;;;5094650;28;20028;-76
2021/08/29 11:01:39;;;;;;;20.85;18.65;;;16.90;90.60;;;;;;5088768;28;20036;-78
2021/08/29 11:04:26;;;;;;;14.85;11.38;;;17.00;90.70;;;;;;5079678;28;20032;-76
2021/08/29 11:06:58;;;;;;;8.70;7.32;;;17.00;90.90;;;;;;5093439;28;20263;-78
2021/08/29 11:09:36;;;;;;;13.15;10.00;;;17.00;91.00;;;;;;5093396;28;20360;-76
2021/08/29 11:12:15;;;;;;;12.60;11.38;;;17.00;91.00;;;;;;5093425;28;20391;-76
2021/08/29 11:14:44;;;;;;;18.13;16.25;;;17.00;91.00;;;;;;5094699;28;20012;-77
2021/08/29 11:17:23;;;;;;;16.77;15.13;;;17.00;91.10;;;;;;5093049;28;20027;-78
2021/08/29 11:20:10;;;;;;;18.83;17.15;;;17.10;91.10;;;;;;5072105;28;20029;-76
2021/08/29 11:22:44;;;;;;;27.23;24.90;;;17.10;91.10;;;;;;5083630;28;20598;-77
2021/08/29 11:25:17;;;;;;;23.75;21.55;;;17.10;91.10;;;;;;5091376;28;20414;-80
2021/08/29 11:27:56;;;;;;;11.98;10.77;;;17.10;91.10;;;;;;5092612;28;20032;-78
2021/08/29 11:30:36;;;;;;;19.85;18.02;;;17.20;91.10;;;;;;5094129;28;20027;-78
2021/08/29 11:33:25;;;;;;;21.63;19.45;;;17.30;91.00;;;;;;5095074;28;20028;-78
2021/08/29 11:35:52;;;;;;;26.35;23.95;;;17.40;90.90;;;;;;5094553;28;20065;-77
2021/08/29 11:38:24;;;;;;;20.45;16.17;;;17.30;90.90;;;;;;5077988;28;20020;-75
2021/08/29 11:40:57;;;;;;;20.23;18.17;;;17.30;90.90;;;;;;5095912;28;20048;-79
2021/08/29 11:43:29;;;;;;;16.95;15.25;;;17.20;90.90;;;;;;5094809;28;20399;-81
2021/08/29 11:46:12;;;;;;;10.13;7.38;;;17.30;91.00;;;;;;5092822;28;20058;-78
2021/08/29 11:48:58;;;;;;;11.20;8.20;;;17.30;91.00;;;;;;5092590;28;20020;-84
2021/08/29 11:51:27;;;;;;;11.85;7.05;;;17.40;91.00;;;;;;5096595;28;20115;-79
2021/08/29 11:53:52;;;;;;;10.63;7.47;;;17.40;91.00;;;;;;5074865;28;20115;-80
2021/08/29 11:56:21;;;;;;;13.88;12.35;;;17.30;91.00;;;;;;5061552;28;20063;-78
2021/08/29 11:58:48;;;;;;;24.10;21.73;;;17.40;91.10;;;;;;5087547;28;20021;-79
2021/08/29 12:01:15;;;;;;;27.88;24.98;;;17.30;91.10;;;;;;5092446;28;20097;-77
2021/08/29 12:03:42;;;;;;;28.67;26.10;;;17.30;91.20;;;;;;5094699;28;20077;-84
2021/08/29 12:06:19;;;;;;;12.90;11.60;;;17.20;91.30;;;;;;5090956;28;20032;-77
2021/08/29 12:09:06;;;;;;;25.08;22.60;;;17.30;91.30;;;;;;5075419;28;20024;-81
2021/08/29 12:11:35;;;;;;;30.40;27.70;;;17.20;91.40;;;;;;5075903;28;20119;-78
2021/08/29 12:14:21;;;;;;;29.00;26.33;;;17.20;91.50;;;;;;5094710;28;20031;-82
2021/08/29 12:16:50;;;;;;;43.35;39.65;;;17.20;91.70;;;;;;5081529;28;20032;-78
2021/08/29 12:19:23;;;;;;;45.00;41.00;;;17.20;91.50;;;;;;5096854;28;20491;-79
2021/08/29 12:21:51;;;;;;;43.05;39.10;;;17.30;91.50;;;;;;5094502;28;20063;-78
2021/08/29 12:24:28;;;;;;;46.28;42.13;;;17.20;91.50;;;;;;5061166;28;20059;-79
2021/08/29 12:27:03;;;;;;;34.28;30.98;;;17.20;91.60;;;;;;5095332;28;20126;-78
2021/08/29 12:29:30;;;;;;;42.17;38.38;;;17.20;91.60;;;;;;5092609;28;20361;-77
2021/08/29 12:32:06;;;;;;;33.97;30.92;;;17.20;91.70;;;;;;5079691;28;20488;-79
2021/08/29 12:34:32;;;;;;;31.48;28.58;;;17.20;91.70;;;;;;5090103;28;20031;-79
2021/08/29 12:37:07;;;;;;;38.85;35.30;;;17.20;91.70;;;;;;5094694;28;20032;-78
2021/08/29 12:39:33;;;;;;;33.28;30.20;;;17.30;91.70;;;;;;5096156;28;20107;-79